sim
Sign-in with your pilot id or email,
or register
Callsign
Passwort

Schedule Details

Flight Number: DLH2719
Departure: Dusseldorf International Airport (EDDL) at 09:35
Arrival: Munich Airport (EDDM) at 10:45
Route: Lufthansa Passenger Schedule. Enter filed route here before submitting Pirep.

Weather Information
Getting current METAR information for EDDL 181420Z 09011KT 060V120 CAVOK 25/06 Q1022 NOSIG
Getting current METAR information for EDDM 181420Z 09012KT CAVOK 19/09 Q1024 NOSIG

Schedule Frequency

Route Map